createdAt,value
2019-01-29T00:01:28.700Z,98975.22
2019-01-29T00:04:01.958Z,98973.42
2019-01-29T00:06:34.343Z,98974.77
2019-01-29T00:09:12.168Z,98978.72
2019-01-29T00:11:44.454Z,98978.31
2019-01-29T00:14:16.570Z,98972.73
2019-01-29T00:16:48.747Z,98975.80
2019-01-29T00:19:20.854Z,98975.19
2019-01-29T00:21:52.934Z,98979.62
2019-01-29T00:24:25.198Z,98980.98
2019-01-29T00:26:57.202Z,98979.27
2019-01-29T00:29:29.431Z,98988.84
2019-01-29T00:32:01.474Z,98985.77
2019-01-29T00:34:33.523Z,98987.55
2019-01-29T00:37:05.658Z,98983.74
2019-01-29T00:39:37.842Z,98989.27
2019-01-29T00:42:10.063Z,98985.84
2019-01-29T00:44:42.078Z,98988.92
2019-01-29T00:47:14.871Z,98985.52
2019-01-29T00:49:46.999Z,98991.18
2019-01-29T00:52:18.994Z,98992.95
2019-01-29T00:54:51.111Z,98995.05
2019-01-29T00:57:23.125Z,98994.63
2019-01-29T00:59:55.323Z,98998.58
2019-01-29T01:02:27.337Z,98996.48
2019-01-29T01:04:59.496Z,98998.73
2019-01-29T01:07:31.575Z,98996.19
2019-01-29T01:10:03.862Z,98994.96
2019-01-29T01:12:35.949Z,99000.14
2019-01-29T01:15:09.110Z,99002.72
2019-01-29T01:17:41.105Z,98999.28
2019-01-29T01:20:14.921Z,99003.63
2019-01-29T01:22:51.123Z,98997.13
2019-01-29T01:25:20.766Z,98998.00
2019-01-29T01:27:52.912Z,99004.94
2019-01-29T01:30:28.585Z,98998.50
2019-01-29T01:33:00.751Z,99002.37
2019-01-29T01:35:33.579Z,99005.84
2019-01-29T01:38:05.606Z,99009.74
2019-01-29T01:40:37.617Z,99010.13
2019-01-29T01:43:09.655Z,99016.17
2019-01-29T01:45:41.634Z,99007.59
2019-01-29T01:48:13.645Z,99008.08
2019-01-29T01:50:45.702Z,99002.52
2019-01-29T01:53:17.655Z,99002.60
2019-01-29T01:55:49.643Z,99005.18
2019-01-29T01:58:21.630Z,99007.78
2019-01-29T02:00:53.685Z,99006.89
2019-01-29T02:03:25.785Z,99004.69
2019-01-29T02:05:57.809Z,99009.00
2019-01-29T02:08:29.840Z,99003.83
2019-01-29T02:11:01.927Z,99012.91
2019-01-29T02:13:33.955Z,99019.03
2019-01-29T02:16:07.843Z,99019.43
2019-01-29T02:18:39.824Z,99028.09
2019-01-29T02:21:11.840Z,99019.86
2019-01-29T02:23:43.906Z,99019.91
2019-01-29T02:26:15.896Z,99025.47
2019-01-29T02:28:47.910Z,99024.61
2019-01-29T02:31:20.053Z,99030.14
2019-01-29T02:33:52.203Z,99033.10
2019-01-29T02:36:24.207Z,99036.95
2019-01-29T02:38:56.306Z,99031.23
2019-01-29T02:41:28.334Z,99035.07
2019-01-29T02:44:00.426Z,99037.64
2019-01-29T02:46:32.650Z,99033.70
2019-01-29T02:49:04.713Z,99039.27
2019-01-29T02:51:36.733Z,99045.73
2019-01-29T02:54:09.021Z,99049.99
2019-01-29T02:56:41.087Z,99047.33
2019-01-29T02:59:13.916Z,99052.48
2019-01-29T03:01:45.964Z,99049.87
2019-01-29T03:04:18.109Z,99051.56
2019-01-29T03:06:50.214Z,99058.89
2019-01-29T03:09:22.290Z,99056.30
2019-01-29T03:11:54.577Z,99060.19
2019-01-29T03:14:26.706Z,99057.58
2019-01-29T03:16:58.767Z,99064.94
2019-01-29T03:19:30.795Z,99064.09
2019-01-29T03:22:02.837Z,99062.37
2019-01-29T03:24:36.042Z,99071.00
2019-01-29T03:27:08.206Z,99075.70
2019-01-29T03:29:40.197Z,99076.13
2019-01-29T03:32:12.273Z,99077.82
2019-01-29T03:34:44.317Z,99079.13
2019-01-29T03:37:17.786Z,99080.00
2019-01-29T03:39:50.761Z,99091.24
2019-01-29T03:42:22.834Z,99087.38
2019-01-29T03:44:54.865Z,99092.20
2019-01-29T03:47:26.886Z,99081.77
2019-01-29T03:49:59.055Z,99092.15
2019-01-29T03:52:32.846Z,99094.32
2019-01-29T03:55:08.606Z,99098.22
2019-01-29T03:57:45.367Z,99098.19
2019-01-29T04:00:31.434Z,99097.34
2019-01-29T04:03:05.804Z,99098.66
2019-01-29T04:05:45.024Z,99106.03
2019-01-29T04:08:22.168Z,99110.80
2019-01-29T04:11:09.221Z,99108.20
2019-01-29T04:13:55.673Z,99115.11
2019-01-29T04:16:42.269Z,99114.66
2019-01-29T04:19:20.132Z,99121.59
2019-01-29T04:21:57.587Z,99125.48
2019-01-29T04:24:38.602Z,99123.31
2019-01-29T04:27:12.708Z,99122.47
2019-01-29T04:29:48.501Z,99131.13
2019-01-29T04:32:30.664Z,99133.27
2019-01-29T04:35:07.231Z,99131.55
2019-01-29T04:37:39.295Z,99142.86
2019-01-29T04:40:12.652Z,99135.95
2019-01-29T04:42:44.650Z,99143.31
2019-01-29T04:45:16.979Z,99152.39
2019-01-29T04:47:49.008Z,99149.77
2019-01-29T04:50:23.531Z,99152.39
2019-01-29T04:52:55.554Z,99155.38
2019-01-29T04:55:27.513Z,99156.66
2019-01-29T04:57:59.495Z,99159.73
2019-01-29T05:00:31.430Z,99161.90
2019-01-29T05:03:03.504Z,99164.07
2019-01-29T05:05:35.479Z,99167.09
2019-01-29T05:08:07.473Z,99168.39
2019-01-29T05:10:39.560Z,99170.56
2019-01-29T05:13:11.603Z,99174.88
2019-01-29T05:15:45.902Z,99184.86
2019-01-29T05:18:17.985Z,99187.06
2019-01-29T05:20:49.975Z,99198.32
2019-01-29T05:23:22.003Z,99202.24
2019-01-29T05:25:55.882Z,99203.09
2019-01-29T05:28:27.864Z,99211.30
2019-01-29T05:31:00.731Z,99203.48
2019-01-29T05:33:35.822Z,99210.00
2019-01-29T05:36:07.931Z,99219.08
2019-01-29T05:38:40.364Z,99224.24
2019-01-29T05:41:12.389Z,99227.35
2019-01-29T05:43:44.343Z,99229.41
2019-01-29T05:46:25.239Z,99229.45
2019-01-29T05:48:59.970Z,99233.35
2019-01-29T05:51:31.947Z,99231.20
2019-01-29T05:54:03.908Z,99234.68
2019-01-29T05:56:35.870Z,99236.45
2019-01-29T05:59:07.903Z,99238.58
2019-01-29T06:01:41.071Z,99239.94
2019-01-29T06:04:13.157Z,99240.78
2019-01-29T06:06:45.189Z,99249.02
2019-01-29T06:09:17.238Z,99249.52
2019-01-29T06:11:49.259Z,99252.92
2019-01-29T06:14:21.276Z,99256.84
2019-01-29T06:16:53.261Z,99264.64
2019-01-29T06:19:25.430Z,99276.38
2019-01-29T06:21:57.530Z,99283.27
2019-01-29T06:24:29.639Z,99281.50
2019-01-29T06:27:06.209Z,99283.53
2019-01-29T06:29:39.507Z,99289.85
2019-01-29T06:32:16.403Z,99300.54
2019-01-29T06:34:48.576Z,99298.66
2019-01-29T06:37:23.530Z,99302.56
2019-01-29T06:39:57.304Z,99306.78
2019-01-29T06:42:29.544Z,99308.95
2019-01-29T06:45:02.190Z,99313.73
2019-01-29T06:47:35.890Z,99324.56
2019-01-29T06:50:10.801Z,99329.30
2019-01-29T06:52:42.961Z,99334.53
2019-01-29T06:55:17.048Z,99337.55
2019-01-29T06:57:55.135Z,99347.96
2019-01-29T07:00:26.501Z,99349.30
2019-01-29T07:03:03.445Z,99356.27
2019-01-29T07:05:35.859Z,99363.25
2019-01-29T07:08:08.184Z,99365.88
2019-01-29T07:10:44.281Z,99366.30
2019-01-29T07:13:18.177Z,99367.67
2019-01-29T07:16:12.534Z,99377.25
2019-01-29T07:19:01.916Z,99379.03
2019-01-29T07:21:33.959Z,99381.59
2019-01-29T07:24:06.118Z,99392.86
2019-01-29T07:26:38.130Z,99403.64
2019-01-29T07:29:11.892Z,99404.52
2019-01-29T07:31:44.074Z,99407.11
2019-01-29T07:34:16.232Z,99411.39
2019-01-29T07:36:48.389Z,99418.34
2019-01-29T07:39:20.487Z,99426.56
2019-01-29T07:41:54.938Z,99433.05
2019-01-29T07:44:27.144Z,99435.19
2019-01-29T07:46:59.401Z,99436.91
2019-01-29T07:49:33.118Z,99446.39
2019-01-29T07:52:05.542Z,99448.59
2019-01-29T07:54:38.784Z,99455.97
2019-01-29T07:57:10.824Z,99459.02
2019-01-29T07:59:43.520Z,99462.42
2019-01-29T08:02:15.596Z,99470.22
2019-01-29T08:04:49.874Z,99474.03
2019-01-29T08:07:22.084Z,99482.28
2019-01-29T08:09:54.156Z,99483.55
2019-01-29T08:12:26.199Z,99488.81
2019-01-29T08:14:58.274Z,99493.52
2019-01-29T08:17:30.372Z,99491.37
2019-01-29T08:20:04.418Z,99506.08
2019-01-29T08:22:55.869Z,99506.08
2019-01-29T08:25:29.702Z,99504.36
2019-01-29T08:28:01.845Z,99509.55
2019-01-29T08:31:01.013Z,99519.17
2019-01-29T08:33:36.098Z,99517.91
2019-01-29T08:36:09.992Z,99523.98
2019-01-29T08:38:42.325Z,99531.32
2019-01-29T08:41:14.656Z,99532.62
2019-01-29T08:43:50.539Z,99537.39
2019-01-29T08:46:32.122Z,99547.78
2019-01-29T08:49:04.796Z,99549.80
2019-01-29T08:51:37.058Z,99560.69
2019-01-29T08:54:09.456Z,99561.49
2019-01-29T08:56:42.739Z,99561.53
2019-01-29T08:59:15.033Z,99569.02
2019-01-29T09:01:47.242Z,99570.36
2019-01-29T09:04:19.969Z,99585.09
2019-01-29T09:06:52.154Z,99583.34
2019-01-29T09:09:24.334Z,99592.39
2019-01-29T09:11:56.433Z,99594.95
2019-01-29T09:14:32.060Z,99600.44
2019-01-29T09:17:04.235Z,99607.23
2019-01-29T09:19:37.854Z,99608.11
2019-01-29T09:22:10.512Z,99612.72
2019-01-29T09:24:43.682Z,99620.47
2019-01-29T09:27:15.862Z,99615.61
2019-01-29T09:29:49.669Z,99618.66
2019-01-29T09:32:22.017Z,99614.64
2019-01-29T09:34:54.040Z,99625.11
2019-01-29T09:37:26.339Z,99628.03
2019-01-29T09:39:58.761Z,99641.06
2019-01-29T09:42:31.110Z,99635.37
2019-01-29T09:45:03.385Z,99638.84
2019-01-29T09:47:36.156Z,99648.81
2019-01-29T09:50:09.179Z,99651.73
2019-01-29T09:52:41.358Z,99650.25
2019-01-29T09:55:15.458Z,99657.81
2019-01-29T09:57:47.449Z,99659.43
2019-01-29T10:00:28.294Z,99660.73
2019-01-29T10:03:00.372Z,99661.70
2019-01-29T10:05:32.414Z,99668.28
2019-01-29T10:08:04.697Z,99671.84
2019-01-29T10:10:36.809Z,99678.95
2019-01-29T10:13:08.879Z,99679.36
2019-01-29T10:15:40.971Z,99684.22
2019-01-29T10:18:13.467Z,99686.78
2019-01-29T10:20:45.596Z,99692.33
2019-01-29T10:23:17.775Z,99686.27
2019-01-29T10:25:50.174Z,99688.91
2019-01-29T10:28:24.170Z,99686.86
2019-01-29T10:30:56.257Z,99688.91
2019-01-29T10:33:28.279Z,99685.38
2019-01-29T10:36:00.443Z,99694.14
2019-01-29T10:38:32.440Z,99692.43
2019-01-29T10:41:04.601Z,99691.50
2019-01-29T10:43:38.082Z,99697.16
2019-01-29T10:46:10.080Z,99702.53
2019-01-29T10:48:42.109Z,99696.98
2019-01-29T10:51:14.195Z,99696.37
2019-01-29T10:53:46.197Z,99691.91
2019-01-29T10:56:18.250Z,99695.80
2019-01-29T10:58:50.267Z,99694.13
2019-01-29T11:01:22.387Z,99695.70
2019-01-29T11:03:54.540Z,99696.78
2019-01-29T11:06:26.552Z,99692.54
2019-01-29T11:08:58.970Z,99696.25
2019-01-29T11:11:30.948Z,99701.48
2019-01-29T11:14:03.016Z,99710.35
2019-01-29T11:16:35.053Z,99716.41
2019-01-29T11:19:07.120Z,99719.17
2019-01-29T11:21:39.191Z,99723.78
2019-01-29T11:24:11.259Z,99726.38
2019-01-29T11:26:43.287Z,99723.78
2019-01-29T11:29:15.526Z,99725.13
2019-01-29T11:31:47.819Z,99728.56
2019-01-29T11:34:24.991Z,99732.88
2019-01-29T11:37:04.875Z,99730.38
2019-01-29T11:39:45.273Z,99736.97
2019-01-29T11:42:30.550Z,99736.42
2019-01-29T11:45:02.778Z,99743.27
2019-01-29T11:47:37.727Z,99743.70
2019-01-29T11:50:10.779Z,99748.33
2019-01-29T11:52:42.898Z,99744.73
2019-01-29T11:55:14.993Z,99751.54
2019-01-29T11:57:47.241Z,99750.47
2019-01-29T12:00:28.053Z,99752.92
2019-01-29T12:03:01.638Z,99757.59
2019-01-29T12:05:36.675Z,99766.59
2019-01-29T12:08:10.209Z,99768.76
2019-01-29T12:10:42.369Z,99779.61
2019-01-29T12:13:14.819Z,99780.59
2019-01-29T12:15:47.090Z,99788.39
2019-01-29T12:18:19.903Z,99789.68
2019-01-29T12:20:58.005Z,99791.44
2019-01-29T12:23:31.638Z,99795.06
2019-01-29T12:26:03.867Z,99790.06
2019-01-29T12:28:36.083Z,99794.28
2019-01-29T12:31:08.293Z,99798.31
2019-01-29T12:33:40.308Z,99803.09
2019-01-29T12:36:12.371Z,99805.00
2019-01-29T12:38:45.386Z,99798.70
2019-01-29T12:41:19.807Z,99802.60
2019-01-29T12:43:51.808Z,99801.29
2019-01-29T12:46:24.308Z,99798.95
2019-01-29T12:48:56.417Z,99801.80
2019-01-29T12:51:41.678Z,99806.83
2019-01-29T12:54:13.745Z,99810.02
2019-01-29T12:56:45.876Z,99805.73
2019-01-29T12:59:25.875Z,99810.94
2019-01-29T13:02:19.969Z,99809.91
2019-01-29T13:05:12.319Z,99808.63
2019-01-29T13:08:02.504Z,99813.17
2019-01-29T13:11:10.124Z,99804.17
2019-01-29T13:13:49.787Z,99816.88
2019-01-29T13:16:24.982Z,99823.90
2019-01-29T13:19:09.315Z,99822.77
2019-01-29T13:21:43.683Z,99821.00
2019-01-29T13:27:41.504Z,99834.78
2019-01-29T13:30:31.498Z,99842.63
2019-01-29T13:33:26.808Z,99846.97
2019-01-29T13:36:59.605Z,99854.92
2019-01-29T13:39:31.335Z,99858.73
2019-01-29T13:42:03.636Z,99864.80
2019-01-29T13:44:38.625Z,99857.48
2019-01-29T13:47:11.914Z,99861.84
2019-01-29T13:49:44.263Z,99862.36
2019-01-29T13:52:18.390Z,99865.56
2019-01-29T13:54:50.473Z,99865.56
2019-01-29T13:57:27.689Z,99870.50
2019-01-29T14:00:01.707Z,99866.66
2019-01-29T14:02:34.227Z,99862.36
2019-01-29T14:05:09.794Z,99868.38
2019-01-29T14:07:41.929Z,99870.16
2019-01-29T14:10:14.330Z,99881.42
2019-01-29T14:14:14.970Z,99882.66
2019-01-29T14:18:05.126Z,99884.27
2019-01-29T14:20:50.819Z,99882.86
2019-01-29T14:32:15.644Z,99902.19
2019-01-29T14:39:26.406Z,99910.16
2019-01-29T14:42:32.411Z,99909.63
2019-01-29T15:01:32.958Z,99908.32
2019-01-29T15:15:53.976Z,99918.28
2019-01-29T15:22:34.248Z,99919.58
2019-01-29T15:25:35.214Z,99922.70
2019-01-29T15:28:27.719Z,99922.23
2019-01-29T15:31:14.289Z,99925.95
2019-01-29T15:33:54.242Z,99921.37
2019-01-29T15:36:34.519Z,99932.58
2019-01-29T15:39:11.268Z,99937.41
2019-01-29T15:42:16.878Z,99939.01
2019-01-29T15:45:09.763Z,99939.30
2019-01-29T15:47:43.716Z,99947.42
2019-01-29T15:50:21.124Z,99944.89
2019-01-29T15:53:01.873Z,99946.62
2019-01-29T15:55:54.941Z,99945.78
2019-01-29T15:58:28.841Z,99947.66
2019-01-29T16:01:02.868Z,99949.44
2019-01-29T16:04:00.304Z,99947.41
2019-01-29T16:06:32.328Z,99949.84
2019-01-29T16:09:08.969Z,99953.84
2019-01-29T16:11:42.260Z,99949.07
2019-01-29T16:18:35.378Z,99965.11
2019-01-29T16:21:43.305Z,99969.88
2019-01-29T16:25:07.194Z,99971.70
2019-01-29T16:31:36.394Z,99976.95
2019-01-29T16:37:54.428Z,99973.19
2019-01-29T16:40:24.709Z,99983.05
2019-01-29T16:50:35.285Z,99984.57
2019-01-29T16:53:17.155Z,99984.52
2019-01-29T16:56:02.839Z,99986.68
2019-01-29T16:59:31.664Z,99979.31
2019-01-29T17:02:06.673Z,99982.32
2019-01-29T17:13:31.447Z,99979.63
2019-01-29T17:15:49.921Z,99982.88
2019-01-29T17:18:57.727Z,99973.59
2019-01-29T17:28:23.347Z,99977.04
2019-01-29T17:31:03.407Z,99981.33
2019-01-29T18:00:55.303Z,99977.33
2019-01-29T18:20:16.569Z,99980.73
2019-01-29T18:31:19.029Z,100003.61
2019-01-29T19:29:10.847Z,100010.92
2019-01-29T19:30:58.291Z,100015.35
2019-01-29T19:34:14.175Z,100012.76
2019-01-29T19:37:50.186Z,100015.88
2019-01-29T21:05:30.606Z,100010.27
2019-01-29T21:08:12.896Z,100016.39
2019-01-29T21:11:10.919Z,100015.19
2019-01-29T21:13:53.331Z,100019.53
2019-01-29T21:16:28.331Z,100012.00
2019-01-29T21:19:02.932Z,100018.34
2019-01-29T21:21:56.695Z,100018.95
2019-01-29T21:24:37.891Z,100014.31
2019-01-29T21:28:44.279Z,100013.52
2019-01-29T21:31:08.755Z,100016.37
2019-01-29T21:33:57.694Z,100016.58
2019-01-29T21:36:55.169Z,100020.44
2019-01-29T21:47:49.653Z,100009.19
2019-01-29T21:50:26.642Z,100010.53
2019-01-29T21:52:59.172Z,100017.16
2019-01-29T21:55:40.889Z,100013.52
2019-01-29T21:58:17.921Z,100011.93
2019-01-29T22:00:52.206Z,100016.23
2019-01-29T22:03:24.402Z,100004.67
2019-01-29T22:05:56.466Z,100009.57
2019-01-29T22:08:28.655Z,100006.92
2019-01-29T22:11:00.826Z,100006.04
2019-01-29T22:13:33.150Z,100004.44
2019-01-29T22:16:05.500Z,100006.15
2019-01-29T22:19:22.608Z,100005.50
2019-01-29T22:21:55.150Z,100006.33
2019-01-29T22:24:27.562Z,100006.45
2019-01-29T22:26:59.903Z,100007.67
2019-01-29T22:29:32.215Z,100003.78
2019-01-29T22:32:06.370Z,100005.91
2019-01-29T22:34:38.455Z,100011.46
2019-01-29T22:37:11.629Z,100006.87
2019-01-29T22:39:43.861Z,100001.66
2019-01-29T22:42:17.696Z,99999.01
2019-01-29T22:44:49.789Z,99998.59
2019-01-29T22:47:21.839Z,99999.58
2019-01-29T22:49:53.860Z,99998.47
2019-01-29T22:52:25.970Z,99999.48
2019-01-29T22:54:58.307Z,99998.83
2019-01-29T22:57:30.476Z,99998.96
2019-01-29T23:00:02.923Z,100002.25
2019-01-29T23:02:36.572Z,99993.41
2019-01-29T23:05:10.078Z,99992.06
2019-01-29T23:07:42.280Z,99997.90
2019-01-29T23:10:16.784Z,99988.41
2019-01-29T23:12:48.896Z,99993.22
2019-01-29T23:15:20.962Z,99994.88
2019-01-29T23:17:53.243Z,99993.16
2019-01-29T23:20:25.296Z,99993.91
2019-01-29T23:22:57.404Z,99995.31
2019-01-29T23:25:29.437Z,99991.67
2019-01-29T23:28:01.519Z,99997.17
2019-01-29T23:30:33.625Z,99994.53
2019-01-29T23:33:05.713Z,99993.83
2019-01-29T23:35:38.080Z,99988.64
2019-01-29T23:38:10.116Z,99987.81
2019-01-29T23:40:42.220Z,99990.71
2019-01-29T23:43:14.310Z,99984.93
2019-01-29T23:45:46.338Z,99985.22
2019-01-29T23:48:18.370Z,99987.52
2019-01-29T23:50:50.428Z,99982.38
2019-01-29T23:53:22.547Z,99984.15
2019-01-29T23:56:49.157Z,99977.95
